sensor_id;sensor_type;location;lat;lon;timestamp;P1;durP1;ratioP1;P2;durP2;ratioP2
64235;SDS011;50564;47.402;9.740;2023-02-15T00:03:41;40.38;;;22.05;;
64235;SDS011;50564;47.402;9.740;2023-02-15T00:08:41;37.78;;;21.27;;
64235;SDS011;50564;47.402;9.740;2023-02-15T00:13:42;29.90;;;18.98;;
64235;SDS011;50564;47.402;9.740;2023-02-15T00:18:43;34.35;;;20.13;;
64235;SDS011;50564;47.402;9.740;2023-02-15T00:23:44;32.97;;;19.25;;
64235;SDS011;50564;47.402;9.740;2023-02-15T00:28:44;33.38;;;20.10;;
64235;SDS011;50564;47.402;9.740;2023-02-15T00:33:45;35.15;;;18.45;;
64235;SDS011;50564;47.402;9.740;2023-02-15T00:38:46;31.92;;;18.50;;
64235;SDS011;50564;47.402;9.740;2023-02-15T00:43:46;29.95;;;18.27;;
64235;SDS011;50564;47.402;9.740;2023-02-15T00:48:47;33.35;;;17.85;;
64235;SDS011;50564;47.402;9.740;2023-02-15T00:53:48;27.73;;;15.40;;
64235;SDS011;50564;47.402;9.740;2023-02-15T00:58:49;28.73;;;16.88;;
64235;SDS011;50564;47.402;9.740;2023-02-15T01:03:49;33.63;;;15.95;;
64235;SDS011;50564;47.402;9.740;2023-02-15T01:08:50;41.13;;;15.93;;
64235;SDS011;50564;47.402;9.740;2023-02-15T01:13:51;28.20;;;15.10;;
64235;SDS011;50564;47.402;9.740;2023-02-15T01:18:53;46.83;;;17.02;;
64235;SDS011;50564;47.402;9.740;2023-02-15T01:23:55;23.80;;;15.23;;
64235;SDS011;50564;47.402;9.740;2023-02-15T01:28:55;27.00;;;13.75;;
64235;SDS011;50564;47.402;9.740;2023-02-15T01:33:57;21.92;;;13.75;;
64235;SDS011;50564;47.402;9.740;2023-02-15T01:38:57;29.73;;;14.00;;
64235;SDS011;50564;47.402;9.740;2023-02-15T01:43:59;30.85;;;14.57;;
64235;SDS011;50564;47.402;9.740;2023-02-15T01:49:03;27.20;;;13.52;;
64235;SDS011;50564;47.402;9.740;2023-02-15T01:54:27;19.58;;;12.40;;
64235;SDS011;50564;47.402;9.740;2023-02-15T01:59:30;17.70;;;12.07;;
64235;SDS011;50564;47.402;9.740;2023-02-15T02:04:38;28.67;;;13.65;;
64235;SDS011;50564;47.402;9.740;2023-02-15T02:09:42;25.60;;;15.77;;
64235;SDS011;50564;47.402;9.740;2023-02-15T02:14:43;21.65;;;14.15;;
64235;SDS011;50564;47.402;9.740;2023-02-15T02:19:52;23.02;;;14.73;;
64235;SDS011;50564;47.402;9.740;2023-02-15T02:51:15;24.15;;;14.65;;
64235;SDS011;50564;47.402;9.740;2023-02-15T02:56:26;27.02;;;15.52;;
64235;SDS011;50564;47.402;9.740;2023-02-15T03:01:34;27.13;;;15.32;;
64235;SDS011;50564;47.402;9.740;2023-02-15T03:11:51;26.05;;;15.40;;
64235;SDS011;50564;47.402;9.740;2023-02-15T03:16:54;34.00;;;16.70;;
64235;SDS011;50564;47.402;9.740;2023-02-15T03:21:59;27.27;;;14.88;;
64235;SDS011;50564;47.402;9.740;2023-02-15T03:27:14;25.88;;;15.65;;
64235;SDS011;50564;47.402;9.740;2023-02-15T03:32:18;26.75;;;15.10;;
64235;SDS011;50564;47.402;9.740;2023-02-15T03:42:26;27.92;;;15.48;;
64235;SDS011;50564;47.402;9.740;2023-02-15T03:47:31;23.80;;;14.45;;
64235;SDS011;50564;47.402;9.740;2023-02-15T03:52:34;27.45;;;14.43;;
64235;SDS011;50564;47.402;9.740;2023-02-15T03:57:35;26.35;;;14.40;;
64235;SDS011;50564;47.402;9.740;2023-02-15T04:08:20;26.83;;;15.43;;
64235;SDS011;50564;47.402;9.740;2023-02-15T04:13:41;26.02;;;14.00;;
64235;SDS011;50564;47.402;9.740;2023-02-15T04:18:42;25.80;;;14.45;;
64235;SDS011;50564;47.402;9.740;2023-02-15T04:24:02;25.80;;;13.98;;
64235;SDS011;50564;47.402;9.740;2023-02-15T04:29:21;26.65;;;14.82;;
64235;SDS011;50564;47.402;9.740;2023-02-15T04:34:23;25.27;;;14.75;;
64235;SDS011;50564;47.402;9.740;2023-02-15T04:39:24;29.02;;;16.73;;
64235;SDS011;50564;47.402;9.740;2023-02-15T04:44:24;25.67;;;14.50;;
64235;SDS011;50564;47.402;9.740;2023-02-15T04:49:25;30.27;;;15.70;;
64235;SDS011;50564;47.402;9.740;2023-02-15T04:54:26;28.92;;;15.23;;
64235;SDS011;50564;47.402;9.740;2023-02-15T04:59:27;24.02;;;14.15;;
64235;SDS011;50564;47.402;9.740;2023-02-15T05:04:27;30.02;;;16.52;;
64235;SDS011;50564;47.402;9.740;2023-02-15T05:09:28;33.28;;;17.55;;
64235;SDS011;50564;47.402;9.740;2023-02-15T05:14:28;31.67;;;17.45;;
64235;SDS011;50564;47.402;9.740;2023-02-15T05:19:29;25.65;;;14.85;;
64235;SDS011;50564;47.402;9.740;2023-02-15T05:24:30;26.55;;;14.98;;
64235;SDS011;50564;47.402;9.740;2023-02-15T05:29:49;31.00;;;17.58;;
64235;SDS011;50564;47.402;9.740;2023-02-15T05:34:50;30.63;;;16.50;;
64235;SDS011;50564;47.402;9.740;2023-02-15T05:39:51;28.20;;;15.60;;
64235;SDS011;50564;47.402;9.740;2023-02-15T05:44:51;26.50;;;14.25;;
64235;SDS011;50564;47.402;9.740;2023-02-15T05:49:52;24.70;;;12.27;;
64235;SDS011;50564;47.402;9.740;2023-02-15T05:54:52;27.85;;;15.27;;
64235;SDS011;50564;47.402;9.740;2023-02-15T05:59:54;29.83;;;17.05;;
64235;SDS011;50564;47.402;9.740;2023-02-15T06:04:55;31.38;;;17.48;;
64235;SDS011;50564;47.402;9.740;2023-02-15T06:09:55;31.10;;;19.65;;
64235;SDS011;50564;47.402;9.740;2023-02-15T06:14:57;34.15;;;22.38;;
64235;SDS011;50564;47.402;9.740;2023-02-15T06:19:58;32.85;;;20.25;;
64235;SDS011;50564;47.402;9.740;2023-02-15T06:24:59;33.45;;;18.23;;
64235;SDS011;50564;47.402;9.740;2023-02-15T06:30:00;32.17;;;20.27;;
64235;SDS011;50564;47.402;9.740;2023-02-15T06:35:00;35.13;;;20.80;;
64235;SDS011;50564;47.402;9.740;2023-02-15T06:40:02;37.25;;;21.13;;
64235;SDS011;50564;47.402;9.740;2023-02-15T06:45:04;46.03;;;24.23;;
64235;SDS011;50564;47.402;9.740;2023-02-15T06:50:05;36.10;;;21.50;;
64235;SDS011;50564;47.402;9.740;2023-02-15T06:55:07;39.67;;;21.33;;
64235;SDS011;50564;47.402;9.740;2023-02-15T07:00:07;39.47;;;23.23;;
64235;SDS011;50564;47.402;9.740;2023-02-15T07:05:09;37.67;;;22.05;;
64235;SDS011;50564;47.402;9.740;2023-02-15T07:10:09;39.28;;;23.50;;
64235;SDS011;50564;47.402;9.740;2023-02-15T07:15:14;48.55;;;25.10;;
64235;SDS011;50564;47.402;9.740;2023-02-15T07:20:17;50.67;;;29.63;;
64235;SDS011;50564;47.402;9.740;2023-02-15T07:25:20;40.05;;;22.90;;
64235;SDS011;50564;47.402;9.740;2023-02-15T07:30:20;39.15;;;22.58;;
64235;SDS011;50564;47.402;9.740;2023-02-15T07:35:21;52.00;;;28.60;;
64235;SDS011;50564;47.402;9.740;2023-02-15T07:40:22;37.53;;;19.73;;
64235;SDS011;50564;47.402;9.740;2023-02-15T07:45:23;39.58;;;17.63;;
64235;SDS011;50564;47.402;9.740;2023-02-15T07:50:24;32.67;;;19.90;;
64235;SDS011;50564;47.402;9.740;2023-02-15T07:55:24;42.38;;;24.35;;
64235;SDS011;50564;47.402;9.740;2023-02-15T08:00:25;38.35;;;20.85;;
64235;SDS011;50564;47.402;9.740;2023-02-15T08:05:28;31.40;;;18.70;;
64235;SDS011;50564;47.402;9.740;2023-02-15T08:10:28;35.63;;;20.27;;
64235;SDS011;50564;47.402;9.740;2023-02-15T08:15:50;37.60;;;21.63;;
64235;SDS011;50564;47.402;9.740;2023-02-15T08:20:51;39.20;;;23.73;;
64235;SDS011;50564;47.402;9.740;2023-02-15T08:25:52;35.65;;;22.02;;
64235;SDS011;50564;47.402;9.740;2023-02-15T08:30:52;28.50;;;18.27;;
64235;SDS011;50564;47.402;9.740;2023-02-15T08:35:53;35.80;;;21.60;;
64235;SDS011;50564;47.402;9.740;2023-02-15T08:40:54;34.63;;;20.70;;
64235;SDS011;50564;47.402;9.740;2023-02-15T08:45:54;34.53;;;20.85;;
64235;SDS011;50564;47.402;9.740;2023-02-15T08:50:55;32.40;;;19.15;;
64235;SDS011;50564;47.402;9.740;2023-02-15T08:55:56;34.40;;;20.63;;
64235;SDS011;50564;47.402;9.740;2023-02-15T09:00:57;32.05;;;17.88;;
64235;SDS011;50564;47.402;9.740;2023-02-15T09:05:59;35.55;;;20.35;;
64235;SDS011;50564;47.402;9.740;2023-02-15T09:16:08;22.90;;;14.90;;
64235;SDS011;50564;47.402;9.740;2023-02-15T09:21:13;38.58;;;22.08;;
64235;SDS011;50564;47.402;9.740;2023-02-15T09:26:16;33.90;;;19.45;;
64235;SDS011;50564;47.402;9.740;2023-02-15T09:31:19;38.78;;;20.42;;
64235;SDS011;50564;47.402;9.740;2023-02-15T09:36:25;36.85;;;18.42;;
64235;SDS011;50564;47.402;9.740;2023-02-15T09:42:15;35.95;;;17.35;;
64235;SDS011;50564;47.402;9.740;2023-02-15T09:52:35;30.88;;;18.98;;
64235;SDS011;50564;47.402;9.740;2023-02-15T10:08:52;37.53;;;21.10;;
64235;SDS011;50564;47.402;9.740;2023-02-15T10:19:47;39.90;;;22.30;;
64235;SDS011;50564;47.402;9.740;2023-02-15T10:30:15;35.15;;;21.00;;
64235;SDS011;50564;47.402;9.740;2023-02-15T10:35:32;35.25;;;21.30;;
64235;SDS011;50564;47.402;9.740;2023-02-15T11:07:46;24.45;;;16.65;;
64235;SDS011;50564;47.402;9.740;2023-02-15T11:12:47;28.23;;;17.73;;
64235;SDS011;50564;47.402;9.740;2023-02-15T11:17:51;25.25;;;16.15;;
64235;SDS011;50564;47.402;9.740;2023-02-15T11:22:55;24.63;;;16.45;;
64235;SDS011;50564;47.402;9.740;2023-02-15T11:27:57;28.48;;;17.58;;
64235;SDS011;50564;47.402;9.740;2023-02-15T11:32:59;23.35;;;15.55;;
64235;SDS011;50564;47.402;9.740;2023-02-15T11:38:16;30.80;;;17.35;;
64235;SDS011;50564;47.402;9.740;2023-02-15T11:43:28;29.67;;;16.27;;
64235;SDS011;50564;47.402;9.740;2023-02-15T11:48:35;29.17;;;17.20;;
64235;SDS011;50564;47.402;9.740;2023-02-15T11:53:36;29.95;;;17.52;;
64235;SDS011;50564;47.402;9.740;2023-02-15T11:58:45;29.23;;;17.42;;
64235;SDS011;50564;47.402;9.740;2023-02-15T12:03:52;25.67;;;15.93;;
64235;SDS011;50564;47.402;9.740;2023-02-15T12:14:20;29.77;;;18.02;;
64235;SDS011;50564;47.402;9.740;2023-02-15T12:24:26;27.85;;;16.65;;
64235;SDS011;50564;47.402;9.740;2023-02-15T12:29:30;29.10;;;17.65;;
64235;SDS011;50564;47.402;9.740;2023-02-15T12:34:43;28.80;;;18.10;;
64235;SDS011;50564;47.402;9.740;2023-02-15T12:39:56;33.22;;;19.75;;
64235;SDS011;50564;47.402;9.740;2023-02-15T12:45:19;29.38;;;18.02;;
64235;SDS011;50564;47.402;9.740;2023-02-15T12:50:24;26.30;;;17.75;;
64235;SDS011;50564;47.402;9.740;2023-02-15T12:55:28;29.75;;;19.95;;
64235;SDS011;50564;47.402;9.740;2023-02-15T13:00:32;32.20;;;20.30;;
64235;SDS011;50564;47.402;9.740;2023-02-15T13:10:34;31.48;;;19.35;;
64235;SDS011;50564;47.402;9.740;2023-02-15T13:15:37;31.40;;;18.77;;
64235;SDS011;50564;47.402;9.740;2023-02-15T13:20:40;28.30;;;17.92;;
64235;SDS011;50564;47.402;9.740;2023-02-15T13:25:45;37.78;;;20.00;;
64235;SDS011;50564;47.402;9.740;2023-02-15T13:30:50;37.03;;;19.80;;
64235;SDS011;50564;47.402;9.740;2023-02-15T13:41:29;31.38;;;19.58;;
64235;SDS011;50564;47.402;9.740;2023-02-15T13:52:39;31.05;;;17.77;;
64235;SDS011;50564;47.402;9.740;2023-02-15T14:02:52;33.15;;;19.55;;
64235;SDS011;50564;47.402;9.740;2023-02-15T14:29:55;30.40;;;19.90;;
64235;SDS011;50564;47.402;9.740;2023-02-15T14:35:02;28.98;;;18.45;;
64235;SDS011;50564;47.402;9.740;2023-02-15T14:40:12;34.83;;;20.05;;
64235;SDS011;50564;47.402;9.740;2023-02-15T14:45:40;31.15;;;19.58;;
64235;SDS011;50564;47.402;9.740;2023-02-15T14:51:02;32.17;;;19.70;;
64235;SDS011;50564;47.402;9.740;2023-02-15T15:06:35;34.95;;;21.45;;
64235;SDS011;50564;47.402;9.740;2023-02-15T15:22:36;38.70;;;23.00;;
64235;SDS011;50564;47.402;9.740;2023-02-15T15:48:48;35.35;;;21.70;;
64235;SDS011;50564;47.402;9.740;2023-02-15T15:53:49;39.10;;;23.05;;
64235;SDS011;50564;47.402;9.740;2023-02-15T15:58:57;43.38;;;22.75;;
64235;SDS011;50564;47.402;9.740;2023-02-15T16:04:03;41.03;;;25.35;;
64235;SDS011;50564;47.402;9.740;2023-02-15T16:09:17;39.47;;;23.25;;
64235;SDS011;50564;47.402;9.740;2023-02-15T16:14:24;41.47;;;23.17;;
64235;SDS011;50564;47.402;9.740;2023-02-15T16:19:40;45.03;;;22.75;;
64235;SDS011;50564;47.402;9.740;2023-02-15T16:30:21;36.42;;;22.10;;
64235;SDS011;50564;47.402;9.740;2023-02-15T16:35:25;36.00;;;22.38;;
64235;SDS011;50564;47.402;9.740;2023-02-15T16:40:30;38.90;;;22.73;;
64235;SDS011;50564;47.402;9.740;2023-02-15T16:45:46;40.88;;;24.30;;
64235;SDS011;50564;47.402;9.740;2023-02-15T16:50:51;43.17;;;23.38;;
64235;SDS011;50564;47.402;9.740;2023-02-15T16:55:54;43.42;;;24.92;;
64235;SDS011;50564;47.402;9.740;2023-02-15T17:00:58;46.95;;;26.05;;
64235;SDS011;50564;47.402;9.740;2023-02-15T17:06:00;46.00;;;26.17;;
64235;SDS011;50564;47.402;9.740;2023-02-15T17:16:26;50.08;;;29.95;;
64235;SDS011;50564;47.402;9.740;2023-02-15T17:21:32;50.60;;;32.50;;
64235;SDS011;50564;47.402;9.740;2023-02-15T17:26:36;49.65;;;30.58;;
64235;SDS011;50564;47.402;9.740;2023-02-15T17:31:38;51.80;;;32.70;;
64235;SDS011;50564;47.402;9.740;2023-02-15T17:36:39;44.88;;;27.08;;
64235;SDS011;50564;47.402;9.740;2023-02-15T17:41:59;38.05;;;23.58;;
64235;SDS011;50564;47.402;9.740;2023-02-15T17:47:00;27.77;;;17.75;;
64235;SDS011;50564;47.402;9.740;2023-02-15T17:52:01;25.92;;;14.70;;
64235;SDS011;50564;47.402;9.740;2023-02-15T17:57:08;19.42;;;11.15;;
64235;SDS011;50564;47.402;9.740;2023-02-15T18:02:13;22.83;;;12.30;;
64235;SDS011;50564;47.402;9.740;2023-02-15T18:07:33;15.27;;;10.43;;
64235;SDS011;50564;47.402;9.740;2023-02-15T18:12:53;15.30;;;10.30;;
64235;SDS011;50564;47.402;9.740;2023-02-15T18:17:54;14.00;;;8.93;;
64235;SDS011;50564;47.402;9.740;2023-02-15T18:22:56;17.70;;;11.30;;
64235;SDS011;50564;47.402;9.740;2023-02-15T18:27:57;14.10;;;9.63;;
64235;SDS011;50564;47.402;9.740;2023-02-15T18:32:59;12.50;;;8.00;;
64235;SDS011;50564;47.402;9.740;2023-02-15T18:38:00;9.80;;;5.43;;
64235;SDS011;50564;47.402;9.740;2023-02-15T18:43:08;8.20;;;4.63;;
64235;SDS011;50564;47.402;9.740;2023-02-15T18:48:14;7.78;;;4.53;;
64235;SDS011;50564;47.402;9.740;2023-02-15T18:53:18;9.60;;;5.60;;
64235;SDS011;50564;47.402;9.740;2023-02-15T18:58:21;11.57;;;6.70;;
64235;SDS011;50564;47.402;9.740;2023-02-15T19:03:24;11.10;;;6.78;;
64235;SDS011;50564;47.402;9.740;2023-02-15T19:08:26;13.00;;;8.05;;
64235;SDS011;50564;47.402;9.740;2023-02-15T19:13:27;13.80;;;8.32;;
64235;SDS011;50564;47.402;9.740;2023-02-15T19:18:29;17.17;;;10.93;;
64235;SDS011;50564;47.402;9.740;2023-02-15T19:23:30;15.77;;;9.70;;
64235;SDS011;50564;47.402;9.740;2023-02-15T19:28:33;12.43;;;7.20;;
64235;SDS011;50564;47.402;9.740;2023-02-15T19:33:34;11.60;;;7.32;;
64235;SDS011;50564;47.402;9.740;2023-02-15T19:38:37;13.18;;;6.78;;
64235;SDS011;50564;47.402;9.740;2023-02-15T19:43:40;11.05;;;6.70;;
64235;SDS011;50564;47.402;9.740;2023-02-15T19:48:42;11.88;;;7.07;;
64235;SDS011;50564;47.402;9.740;2023-02-15T19:53:44;13.45;;;6.20;;
64235;SDS011;50564;47.402;9.740;2023-02-15T19:58:47;70.10;;;40.10;;
64235;SDS011;50564;47.402;9.740;2023-02-15T20:03:50;64.35;;;39.90;;
64235;SDS011;50564;47.402;9.740;2023-02-15T20:08:54;37.80;;;25.75;;
64235;SDS011;50564;47.402;9.740;2023-02-15T20:13:55;29.77;;;19.10;;
64235;SDS011;50564;47.402;9.740;2023-02-15T20:18:58;34.08;;;21.80;;
64235;SDS011;50564;47.402;9.740;2023-02-15T20:24:02;32.10;;;19.67;;
64235;SDS011;50564;47.402;9.740;2023-02-15T20:29:11;26.88;;;18.65;;
64235;SDS011;50564;47.402;9.740;2023-02-15T20:34:18;30.50;;;19.65;;
64235;SDS011;50564;47.402;9.740;2023-02-15T20:39:22;33.53;;;21.73;;
64235;SDS011;50564;47.402;9.740;2023-02-15T20:44:24;30.13;;;19.58;;
64235;SDS011;50564;47.402;9.740;2023-02-15T20:49:30;29.13;;;19.17;;
64235;SDS011;50564;47.402;9.740;2023-02-15T20:54:34;28.42;;;18.75;;
64235;SDS011;50564;47.402;9.740;2023-02-15T20:59:38;30.27;;;20.63;;
64235;SDS011;50564;47.402;9.740;2023-02-15T21:04:40;35.20;;;23.13;;
64235;SDS011;50564;47.402;9.740;2023-02-15T21:09:43;31.90;;;21.63;;
64235;SDS011;50564;47.402;9.740;2023-02-15T21:14:45;35.83;;;23.63;;
64235;SDS011;50564;47.402;9.740;2023-02-15T21:19:47;33.35;;;21.17;;
64235;SDS011;50564;47.402;9.740;2023-02-15T21:24:49;34.60;;;23.10;;
64235;SDS011;50564;47.402;9.740;2023-02-15T21:29:52;36.58;;;24.52;;
64235;SDS011;50564;47.402;9.740;2023-02-15T21:34:55;34.05;;;23.30;;
64235;SDS011;50564;47.402;9.740;2023-02-15T21:39:56;36.53;;;23.30;;
64235;SDS011;50564;47.402;9.740;2023-02-15T21:44:58;38.80;;;24.77;;
64235;SDS011;50564;47.402;9.740;2023-02-15T21:50:18;40.40;;;24.40;;
64235;SDS011;50564;47.402;9.740;2023-02-15T21:56:00;40.60;;;26.50;;
64235;SDS011;50564;47.402;9.740;2023-02-15T22:01:03;37.78;;;23.35;;
64235;SDS011;50564;47.402;9.740;2023-02-15T22:06:04;34.35;;;20.00;;
64235;SDS011;50564;47.402;9.740;2023-02-15T22:11:09;14.57;;;8.93;;
64235;SDS011;50564;47.402;9.740;2023-02-15T22:16:13;18.27;;;10.77;;
64235;SDS011;50564;47.402;9.740;2023-02-15T22:21:23;21.83;;;12.20;;
64235;SDS011;50564;47.402;9.740;2023-02-15T22:26:25;19.90;;;11.95;;
64235;SDS011;50564;47.402;9.740;2023-02-15T22:31:27;19.23;;;11.88;;
64235;SDS011;50564;47.402;9.740;2023-02-15T22:36:28;20.85;;;12.38;;
64235;SDS011;50564;47.402;9.740;2023-02-15T22:41:29;32.83;;;19.95;;
64235;SDS011;50564;47.402;9.740;2023-02-15T22:46:30;28.73;;;18.10;;
64235;SDS011;50564;47.402;9.740;2023-02-15T22:51:31;33.80;;;19.02;;
64235;SDS011;50564;47.402;9.740;2023-02-15T23:01:48;37.55;;;22.08;;
64235;SDS011;50564;47.402;9.740;2023-02-15T23:06:49;34.63;;;21.98;;
64235;SDS011;50564;47.402;9.740;2023-02-15T23:11:50;36.08;;;21.40;;
64235;SDS011;50564;47.402;9.740;2023-02-15T23:16:51;38.25;;;22.45;;
64235;SDS011;50564;47.402;9.740;2023-02-15T23:21:53;44.45;;;26.23;;
64235;SDS011;50564;47.402;9.740;2023-02-15T23:26:53;45.20;;;27.35;;
64235;SDS011;50564;47.402;9.740;2023-02-15T23:32:15;40.30;;;24.20;;
64235;SDS011;50564;47.402;9.740;2023-02-15T23:37:15;40.85;;;22.90;;
64235;SDS011;50564;47.402;9.740;2023-02-15T23:42:20;39.90;;;21.60;;
64235;SDS011;50564;47.402;9.740;2023-02-15T23:47:29;32.10;;;19.75;;
64235;SDS011;50564;47.402;9.740;2023-02-15T23:53:04;32.15;;;19.45;;
64235;SDS011;50564;47.402;9.740;2023-02-15T23:58:05;37.83;;;23.58;;
